Time;durP1;ratioP1;P1;durP2;ratioP2;P2;SDS_P1;SDS_P2;PMS_P1;PMS_P2;Temp;Humidity;BMP_temperature;BMP_pressure;BME280_temperature;BME280_humidity;BME280_pressure;Samples;Min_cycle;Max_cycle;Signal;HPM_P1;HPM_P2
2022/05/30 00:00:22;;;;;;;8.10;5.10;;;;;;;11.37;66.93;99663.19;130018;1270;108790;-77
2022/05/30 00:03:41;;;;;;;6.90;5.00;;;;;;;11.35;67.07;99662.35;130041;1270;109162;-77
2022/05/30 00:06:46;;;;;;;8.50;5.80;;;;;;;11.38;67.29;99657.20;130004;1271;107129;-80
2022/05/30 00:09:52;;;;;;;9.70;6.20;;;;;;;11.43;67.41;99658.05;130167;1270;108901;-77
2022/05/30 00:12:57;;;;;;;10.10;6.20;;;;;;;11.43;67.43;99641.56;130219;1270;108715;-78
2022/05/30 00:16:06;;;;;;;7.90;6.40;;;;;;;11.34;67.76;99643.36;130134;1270;108753;-79
2022/05/30 00:19:12;;;;;;;9.40;6.90;;;;;;;11.34;67.64;99645.54;130159;1270;108956;-80
2022/05/30 00:22:18;;;;;;;7.40;6.10;;;;;;;11.39;67.76;99648.90;130099;1270;108726;-81
2022/05/30 00:25:23;;;;;;;8.60;6.10;;;;;;;11.42;67.92;99646.78;130102;1270;107774;-82
2022/05/30 00:28:28;;;;;;;7.90;6.10;;;;;;;11.42;67.85;99654.09;130155;1270;108702;-82
2022/05/30 00:31:35;;;;;;;8.10;5.60;;;;;;;11.43;67.95;99649.61;130121;1270;108951;-82
2022/05/30 00:34:41;;;;;;;7.70;5.20;;;;;;;11.44;68.08;99645.33;130188;1270;108770;-84
2022/05/30 00:37:46;;;;;;;8.30;5.40;;;;;;;11.46;68.18;99643.16;130153;1270;108742;-85
2022/05/30 00:40:52;;;;;;;7.40;6.00;;;;;;;11.50;68.00;99636.62;130165;1270;108975;-84
2022/05/30 00:43:58;;;;;;;9.50;5.70;;;;;;;11.55;68.35;99630.52;130107;1271;107020;-79
2022/05/30 00:47:04;;;;;;;9.70;6.90;;;;;;;11.58;67.95;99633.13;130077;1270;108561;-78
2022/05/30 00:50:11;;;;;;;9.30;6.30;;;;;;;11.62;68.04;99634.70;129928;1271;109303;-79
2022/05/30 00:53:17;;;;;;;7.90;6.00;;;;;;;11.63;68.12;99636.02;130083;1270;108971;-79
2022/05/30 00:56:25;;;;;;;8.00;6.30;;;;;;;11.63;68.28;99638.66;130094;1270;108784;-81
2022/05/30 00:59:31;;;;;;;7.50;5.10;;;;;;;11.62;67.98;99637.20;129882;1270;312153;-81
2022/05/30 01:02:40;;;;;;;8.10;4.80;;;;;;;11.60;68.65;99639.24;130163;1270;108577;-81
2022/05/30 01:09:12;;;;;;;6.80;5.40;;;;;;;11.62;68.83;99641.65;130175;1270;108811;-81
2022/05/30 01:12:18;;;;;;;8.10;6.30;;;;;;;11.65;68.61;99643.75;130155;1270;107661;-84
2022/05/30 01:15:27;;;;;;;9.30;7.00;;;;;;;11.68;68.72;99643.81;130101;1270;108780;-82
2022/05/30 01:18:37;;;;;;;9.10;6.40;;;;;;;11.69;68.67;99640.34;130207;1270;108913;-82
2022/05/30 01:22:00;;;;;;;7.50;5.70;;;;;;;11.65;68.67;99643.50;130104;1271;108838;-80
2022/05/30 01:25:10;;;;;;;;;;;;;;;11.65;68.94;99644.36;130270;1271;107580;-81
2022/05/30 01:28:43;;;;;;;7.60;5.70;;;;;;;11.66;69.14;99647.50;130130;1270;108996;-80
2022/05/30 01:31:48;;;;;;;11.00;5.60;;;;;;;11.64;69.28;99641.78;129993;1271;108673;-79
2022/05/30 01:34:54;;;;;;;8.80;6.10;;;;;;;11.63;69.38;99639.27;130083;1270;108865;-79
2022/05/30 01:38:04;;;;;;;10.60;6.60;;;;;;;11.65;69.45;99640.45;130367;1270;108677;-81
2022/05/30 01:41:10;;;;;;;8.80;7.20;;;;;;;11.70;69.83;99636.28;130289;1270;108895;-80
2022/05/30 01:44:17;;;;;;;9.40;7.20;;;;;;;11.74;69.74;99637.23;129969;1270;107787;-79
2022/05/30 01:47:22;;;;;;;9.30;7.30;;;;;;;11.79;69.84;99636.20;130087;1270;108956;-79
2022/05/30 01:50:29;;;;;;;10.10;8.10;;;;;;;11.80;69.58;99636.56;130067;1270;108950;-80
2022/05/30 01:53:42;;;;;;;13.20;8.60;;;;;;;11.79;69.82;99640.94;130266;1270;108886;-81
2022/05/30 01:57:00;;;;;;;12.30;8.00;;;;;;;11.77;70.26;99640.09;130094;1270;108658;-80
2022/05/30 02:00:12;;;;;;;10.80;7.50;;;;;;;11.75;70.10;99636.66;130149;1270;108489;-80
2022/05/30 02:03:27;;;;;;;11.70;8.00;;;;;;;11.75;70.40;99629.61;130106;1270;108868;-82
2022/05/30 02:06:34;;;;;;;9.70;7.50;;;;;;;11.79;70.35;99622.27;130028;1271;107337;-82
2022/05/30 02:09:40;;;;;;;11.00;7.60;;;;;;;11.81;70.52;99619.02;130028;1270;108570;-84
2022/05/30 02:12:45;;;;;;;9.40;6.90;;;;;;;11.79;70.65;99621.66;130053;1271;107475;-83
2022/05/30 02:19:29;;;;;;;8.40;6.00;;;;;;;11.76;70.79;99625.93;130237;1270;108976;-88
2022/05/30 02:22:35;;;;;;;7.50;5.80;;;;;;;11.77;71.02;99624.98;130109;1270;108955;-85
2022/05/30 02:25:43;;;;;;;7.30;5.70;;;;;;;11.78;71.01;99624.54;130139;1270;108737;-84
2022/05/30 02:28:50;;;;;;;6.80;5.60;;;;;;;11.80;70.94;99624.83;130223;1270;108672;-84
2022/05/30 02:31:56;;;;;;;6.90;5.30;;;;;;;11.82;71.02;99619.98;130236;1270;108751;-83
2022/05/30 02:38:25;;;;;;;4.90;4.40;;;;;;;11.79;71.03;99611.88;130174;1270;108784;-87
2022/05/30 02:42:10;;;;;;;5.80;4.20;;;;;;;11.76;71.25;99609.94;130199;1270;108881;-86
2022/05/30 02:45:16;;;;;;;5.20;3.70;;;;;;;11.76;71.16;99608.85;130272;1270;108862;-84
2022/05/30 02:48:21;;;;;;;3.70;3.30;;;;;;;11.76;71.18;99610.46;130222;1270;108656;-80
2022/05/30 02:51:27;;;;;;;3.80;3.50;;;;;;;11.76;71.33;99610.23;130248;1270;108723;-80
2022/05/30 02:54:33;;;;;;;5.10;3.70;;;;;;;11.77;70.99;99609.31;130146;1270;108687;-80
2022/05/30 02:57:42;;;;;;;6.20;3.80;;;;;;;11.80;71.51;99601.96;130103;1270;108741;-80
2022/05/30 03:00:47;;;;;;;3.80;3.30;;;;;;;11.81;71.27;99602.10;130140;1271;108752;-78
2022/05/30 03:03:53;;;;;;;4.20;3.50;;;;;;;11.79;71.57;99595.09;130253;1270;108750;-81
2022/05/30 03:06:59;;;;;;;3.40;3.10;;;;;;;11.79;71.65;99593.73;130280;1270;108657;-81
2022/05/30 03:10:06;;;;;;;4.20;3.10;;;;;;;11.79;71.39;99592.90;130189;1270;108777;-80
2022/05/30 03:13:26;;;;;;;3.30;2.50;;;;;;;11.78;71.62;99588.61;130182;1270;108774;-80
2022/05/30 03:16:32;;;;;;;3.40;3.00;;;;;;;11.84;72.02;99590.52;130199;1270;108744;-80
2022/05/30 03:19:38;;;;;;;5.20;3.30;;;;;;;11.89;71.74;99589.90;130117;1271;108773;-81
2022/05/30 03:22:43;;;;;;;3.30;2.90;;;;;;;11.91;71.52;99588.64;130155;1270;109064;-81
2022/05/30 03:26:12;;;;;;;3.40;3.10;;;;;;;11.90;71.95;99585.00;130069;1271;108627;-80
2022/05/30 03:29:18;;;;;;;2.80;2.50;;;;;;;11.91;71.82;99580.96;130194;1270;108863;-81
2022/05/30 03:32:25;;;;;;;2.60;2.40;;;;;;;11.92;71.86;99579.57;129948;1271;108451;-81
2022/05/30 03:35:31;;;;;;;3.50;2.80;;;;;;;11.94;72.15;99576.59;130150;1270;109119;-81
2022/05/30 03:38:55;;;;;;;4.20;3.00;;;;;;;11.95;72.01;99581.02;130240;1270;109457;-80
2022/05/30 03:42:27;;;;;;;3.50;2.80;;;;;;;11.93;71.79;99581.99;129882;1270;108875;-81
2022/05/30 03:45:38;;;;;;;3.60;3.20;;;;;;;11.93;72.08;99581.84;130164;1270;108923;-80
2022/05/30 03:48:44;;;;;;;3.20;2.80;;;;;;;11.96;72.10;99577.57;130060;1271;107662;-82
2022/05/30 03:51:50;;;;;;;3.80;3.00;;;;;;;11.99;72.27;99574.95;130042;1270;108720;-81
2022/05/30 03:54:56;;;;;;;3.90;2.60;;;;;;;11.99;72.35;99575.58;130138;1270;108772;-80
2022/05/30 03:58:03;;;;;;;3.70;2.40;;;;;;;12.00;72.18;99576.55;130256;1270;108930;-80
2022/05/30 04:01:13;;;;;;;3.20;2.80;;;;;;;11.98;72.15;99579.09;130175;1270;108867;-80
2022/05/30 04:04:18;;;;;;;3.30;2.70;;;;;;;11.96;72.33;99576.96;130158;1270;108636;-81
2022/05/30 04:07:24;;;;;;;3.20;2.90;;;;;;;11.99;72.26;99572.28;130067;1270;108833;-80
2022/05/30 04:10:49;;;;;;;3.60;2.80;;;;;;;12.05;72.29;99573.50;130124;1270;108800;-81
2022/05/30 04:14:14;;;;;;;3.80;3.10;;;;;;;12.08;72.42;99575.08;130160;1271;108955;-80
2022/05/30 04:17:42;;;;;;;4.30;3.40;;;;;;;12.04;72.39;99580.02;130143;1270;108787;-80
2022/05/30 04:20:48;;;;;;;3.60;3.20;;;;;;;11.95;72.55;99577.14;130149;1270;108662;-81
2022/05/30 04:23:54;;;;;;;3.50;2.90;;;;;;;11.99;72.57;99576.17;130064;1271;108814;-80
2022/05/30 04:27:01;;;;;;;4.90;2.60;;;;;;;12.06;72.79;99579.10;130203;1270;108642;-80
2022/05/30 04:30:09;;;;;;;4.30;3.40;;;;;;;12.12;72.71;99579.63;130073;1271;108737;-81
2022/05/30 04:33:27;;;;;;;4.40;3.20;;;;;;;12.21;72.87;99572.52;130139;1270;108710;-81
2022/05/30 04:36:33;;;;;;;3.50;3.20;;;;;;;12.27;72.93;99570.92;130142;1270;109676;-81
2022/05/30 04:39:39;;;;;;;3.90;3.10;;;;;;;12.30;72.96;99567.00;130035;1271;107677;-81
2022/05/30 04:43:03;;;;;;;4.70;3.00;;;;;;;12.34;73.16;99564.55;130120;1270;108697;-81
2022/05/30 04:46:28;;;;;;;6.50;3.20;;;;;;;12.37;72.91;99565.66;130141;1270;108981;-81
2022/05/30 04:49:33;;;;;;;4.10;3.40;;;;;;;12.33;73.12;99565.97;130027;1271;109058;-81
2022/05/30 04:52:39;;;;;;;3.80;3.30;;;;;;;12.27;72.94;99565.05;129912;1271;108912;-81
2022/05/30 04:56:05;;;;;;;4.00;3.50;;;;;;;12.30;72.91;99565.94;130148;1270;109121;-81
2022/05/30 04:59:18;;;;;;;5.80;3.50;;;;;;;12.32;73.20;99563.25;130170;1270;109056;-82
2022/05/30 05:02:24;;;;;;;4.60;3.60;;;;;;;12.33;73.22;99558.57;130008;1270;107671;-80
2022/05/30 05:05:29;;;;;;;3.80;3.30;;;;;;;12.42;73.08;99555.45;130071;1270;108657;-81
2022/05/30 05:08:54;;;;;;;3.90;3.20;;;;;;;12.45;73.07;99555.98;130165;1270;107709;-80
2022/05/30 05:12:31;;;;;;;4.90;3.50;;;;;;;12.37;73.25;99554.19;130151;1270;108776;-79
2022/05/30 05:15:59;;;;;;;4.60;3.30;;;;;;;12.35;73.55;99554.30;130148;1270;111540;-80
2022/05/30 05:19:12;;;;;;;7.20;6.40;;;;;;;12.29;73.63;99551.79;130037;1270;108924;-80
2022/05/30 05:22:17;;;;;;;13.30;9.40;;;;;;;12.28;73.80;99552.47;130089;1270;108853;-79
2022/05/30 05:25:23;;;;;;;7.00;5.00;;;;;;;12.30;74.00;99548.81;129916;1271;108806;-79
2022/05/30 05:28:55;;;;;;;4.40;4.00;;;;;;;12.34;73.80;99552.54;130080;1270;108979;-79
2022/05/30 05:32:01;;;;;;;4.30;3.80;;;;;;;12.38;73.84;99551.98;130041;1270;108948;-79
2022/05/30 05:35:09;;;;;;;4.00;3.30;;;;;;;12.39;73.99;99550.95;130040;1270;108758;-79
2022/05/30 05:38:15;;;;;;;7.20;5.30;;;;;;;12.41;74.18;99552.35;129964;1270;108848;-79
2022/05/30 05:41:40;;;;;;;7.00;5.70;;;;;;;12.42;74.15;99554.18;130096;1270;108847;-80
2022/05/30 05:44:49;;;;;;;8.40;6.40;;;;;;;12.42;74.27;99552.58;130048;1270;108815;-80
2022/05/30 05:47:54;;;;;;;7.60;6.70;;;;;;;12.44;74.44;99553.98;130019;1270;109104;-80
2022/05/30 05:50:59;;;;;;;10.20;7.90;;;;;;;12.44;74.50;99554.70;129973;1271;108882;-80
2022/05/30 05:54:06;;;;;;;8.40;7.30;;;;;;;12.45;74.75;99557.44;129996;1271;108939;-79
2022/05/30 05:57:11;;;;;;;7.10;6.20;;;;;;;12.48;74.77;99556.16;130016;1271;109235;-79
2022/05/30 06:00:27;;;;;;;7.00;5.30;;;;;;;12.55;74.60;99550.70;129915;1270;108972;-79
2022/05/30 06:03:33;;;;;;;6.10;5.30;;;;;;;12.66;74.55;99553.65;129991;1271;107705;-79
2022/05/30 06:07:02;;;;;;;5.70;5.10;;;;;;;12.78;74.64;99548.98;130129;1270;107167;-79
2022/05/30 06:10:19;;;;;;;6.80;4.90;;;;;;;12.88;74.63;99547.42;130115;1269;108686;-78
2022/05/30 06:13:32;;;;;;;22.50;20.10;;;;;;;12.91;74.88;99547.79;130217;1271;108963;-79
2022/05/30 06:16:40;;;;;;;13.80;12.30;;;;;;;12.92;75.10;99552.23;130032;1270;108634;-78
2022/05/30 06:19:48;;;;;;;9.10;7.00;;;;;;;12.88;74.61;99553.89;130039;1271;108753;-78
2022/05/30 06:22:53;;;;;;;12.10;9.00;;;;;;;12.87;74.69;99553.71;130137;1271;108995;-78
2022/05/30 06:26:19;;;;;;;8.80;7.90;;;;;;;12.91;74.84;99555.02;130020;1270;107657;-78
2022/05/30 06:29:43;;;;;;;7.60;6.30;;;;;;;12.91;74.75;99556.53;130019;1270;107642;-78
2022/05/30 06:32:50;;;;;;;6.90;5.60;;;;;;;12.91;74.70;99560.61;130048;1270;108992;-78
2022/05/30 06:36:14;;;;;;;7.10;5.60;;;;;;;12.95;74.75;99565.35;130132;1270;108796;-78
2022/05/30 06:39:20;;;;;;;7.50;5.80;;;;;;;12.93;74.81;99564.44;130090;1270;108552;-78
2022/05/30 06:42:39;;;;;;;7.30;5.50;;;;;;;12.94;74.95;99565.18;129962;1271;108684;-78
2022/05/30 06:46:03;;;;;;;7.90;6.00;;;;;;;13.03;74.87;99563.27;130021;1271;108943;-79
2022/05/30 06:49:27;;;;;;;7.10;5.50;;;;;;;13.14;74.83;99562.11;129990;1270;108900;-78
2022/05/30 06:52:39;;;;;;;93.10;53.60;;;;;;;13.23;75.09;99567.11;130033;1270;109042;-78
2022/05/30 06:55:49;;;;;;;42.10;33.50;;;;;;;13.29;74.98;99565.11;130142;1270;108889;-79
2022/05/30 06:58:55;;;;;;;32.50;23.50;;;;;;;13.39;74.96;99563.02;130035;1271;108716;-79
2022/05/30 07:02:04;;;;;;;12.40;10.40;;;;;;;13.47;74.44;99558.90;130022;1271;108799;-80
2022/05/30 07:05:28;;;;;;;14.00;12.50;;;;;;;13.44;74.50;99561.39;130228;1270;108463;-80
2022/05/30 07:09:07;;;;;;;7.10;5.90;;;;;;;13.53;74.58;99557.94;130215;1271;108624;-80
2022/05/30 07:12:32;;;;;;;6.10;5.50;;;;;;;13.64;74.31;99558.88;130134;1270;110141;-81
2022/05/30 07:15:40;;;;;;;3.80;3.40;;;;;;;13.78;73.60;99556.09;130062;1270;108891;-80
2022/05/30 07:18:47;;;;;;;5.20;4.30;;;;;;;13.90;73.28;99554.19;130041;1271;108924;-78
2022/05/30 07:21:54;;;;;;;21.40;12.70;;;;;;;14.19;73.44;99556.02;129981;1271;108948;-79
2022/05/30 07:25:18;;;;;;;7.50;4.90;;;;;;;14.36;72.86;99559.98;130351;1270;108386;-78
2022/05/30 07:28:28;;;;;;;4.70;4.20;;;;;;;14.55;73.28;99555.56;130235;1270;108675;-78
2022/05/30 07:31:56;;;;;;;3.90;3.50;;;;;;;14.84;73.49;99555.33;130279;1271;108841;-79
2022/05/30 07:35:21;;;;;;;5.30;3.60;;;;;;;15.19;72.98;99554.27;130216;1271;108566;-79
2022/05/30 07:38:59;;;;;;;18.50;12.40;;;;;;;15.30;71.57;99555.71;130234;1271;108816;-79
2022/05/30 07:42:22;;;;;;;6.20;4.60;;;;;;;15.41;72.07;99554.40;130207;1271;108766;-79
2022/05/30 07:45:41;;;;;;;4.30;3.50;;;;;;;15.61;71.89;99553.59;130292;1271;107807;-79
2022/05/30 07:48:53;;;;;;;38.40;14.60;;;;;;;15.83;71.09;99557.71;130014;1270;108880;-79
2022/05/30 07:52:34;;;;;;;7.90;4.40;;;;;;;16.03;71.32;99559.77;129306;1275;108689;-80
2022/05/30 07:55:53;;;;;;;3.40;2.80;;;;;;;16.28;71.26;99557.80;130025;1270;108980;-80
2022/05/30 07:58:58;;;;;;;9.00;5.30;;;;;;;16.47;70.84;99557.36;129963;1271;108983;-80
2022/05/30 08:02:05;;;;;;;7.50;4.40;;;;;;;16.53;70.44;99552.80;130061;1271;108693;-79
2022/05/30 08:05:13;;;;;;;5.30;3.80;;;;;;;16.61;70.87;99551.63;129941;1271;108688;-80
2022/05/30 08:08:47;;;;;;;3.20;2.90;;;;;;;16.64;69.31;99551.91;129503;1271;108767;-79
2022/05/30 08:11:53;;;;;;;3.90;3.00;;;;;;;16.52;68.78;99552.42;130216;1271;107591;-79
2022/05/30 08:15:18;;;;;;;3.00;2.80;;;;;;;16.47;69.32;99550.79;130157;1271;108919;-80
2022/05/30 08:18:46;;;;;;;3.80;2.90;;;;;;;16.55;68.81;99552.38;130243;1269;107413;-79
2022/05/30 08:21:52;;;;;;;3.20;2.90;;;;;;;16.43;68.57;99552.27;130238;1271;108605;-80
2022/05/30 08:24:57;;;;;;;3.40;2.70;;;;;;;16.31;67.11;99555.75;130298;1271;109093;-79
2022/05/30 08:28:05;;;;;;;3.70;2.80;;;;;;;16.11;68.51;99556.55;130322;1271;108650;-80
2022/05/30 08:31:10;;;;;;;3.50;3.00;;;;;;;16.19;68.67;99558.20;130287;1271;108522;-79
2022/05/30 08:34:39;;;;;;;3.70;2.80;;;;;;;16.14;66.99;99558.52;130179;1271;108943;-80
2022/05/30 08:37:46;;;;;;;4.60;3.00;;;;;;;15.94;67.50;99564.44;130077;1271;108753;-80
2022/05/30 08:44:21;;;;;;;3.40;3.10;;;;;;;15.95;67.96;99562.29;129975;1271;108756;-79
2022/05/30 08:47:48;;;;;;;4.00;3.20;;;;;;;16.13;67.77;99561.14;130187;1271;108774;-80
2022/05/30 08:51:09;;;;;;;3.40;2.70;;;;;;;16.20;66.63;99559.20;130253;1271;108427;-80
2022/05/30 08:54:30;;;;;;;2.70;2.50;;;;;;;16.19;67.15;99558.04;130248;1271;108945;-79
2022/05/30 08:58:11;;;;;;;3.60;2.70;;;;;;;16.42;66.12;99556.95;130253;1271;108678;-80
2022/05/30 09:01:24;;;;;;;3.20;2.60;;;;;;;16.57;65.32;99552.63;130174;1271;108620;-80
2022/05/30 09:05:11;;;;;;;13.00;5.10;;;;;;;16.58;65.37;99554.16;130045;1270;108922;-81
2022/05/30 09:08:33;;;;;;;9.70;4.30;;;;;;;16.74;65.55;99549.30;130104;1271;108916;-80
2022/05/30 09:12:18;;;;;;;4.70;3.10;;;;;;;16.88;63.86;99550.44;129759;1271;107673;-81
2022/05/30 09:15:47;;;;;;;2.80;2.40;;;;;;;16.94;65.20;99547.40;130211;1271;108709;-80
2022/05/30 09:18:56;;;;;;;23.40;7.60;;;;;;;17.27;64.97;99548.14;130232;1271;108672;-80
2022/05/30 09:22:04;;;;;;;4.00;2.70;;;;;;;17.44;63.69;99550.52;130106;1271;108584;-81
2022/05/30 09:28:54;;;;;;;3.40;2.20;;;;;;;17.68;63.93;99555.33;129971;1271;108728;-78
2022/05/30 09:32:20;;;;;;;3.30;2.30;;;;;;;17.92;62.72;99553.63;130151;1271;108799;-79
2022/05/30 09:35:34;;;;;;;2.30;2.10;;;;;;;17.95;62.33;99555.52;130097;1271;108598;-79
2022/05/30 09:39:17;;;;;;;2.90;1.90;;;;;;;18.23;63.69;99557.20;129612;1271;108619;-79
2022/05/30 09:42:30;;;;;;;2.20;2.00;;;;;;;18.52;63.64;99558.33;130133;1271;109019;-79
2022/05/30 09:45:36;;;;;;;2.50;2.00;;;;;;;18.65;63.39;99557.55;130040;1271;108676;-80
2022/05/30 09:49:02;;;;;;;2.20;2.00;;;;;;;18.65;63.19;99560.62;129975;1271;108655;-79
2022/05/30 09:52:27;;;;;;;3.60;2.10;;;;;;;18.48;63.26;99564.09;130150;1271;108705;-81
2022/05/30 09:55:37;;;;;;;2.20;2.00;;;;;;;18.26;63.64;99571.35;130095;1271;108704;-79
2022/05/30 09:58:50;;;;;;;3.10;2.00;;;;;;;18.07;63.40;99571.21;130198;1270;109047;-80
2022/05/30 10:02:22;;;;;;;2.40;2.00;;;;;;;17.83;63.93;99579.37;130184;1271;108850;-80
2022/05/30 10:05:30;;;;;;;2.90;2.30;;;;;;;17.68;63.70;99584.04;130194;1271;108778;-80
2022/05/30 10:08:36;;;;;;;2.70;2.50;;;;;;;17.55;63.74;99582.65;130122;1271;108672;-79
2022/05/30 10:11:53;;;;;;;2.30;2.10;;;;;;;17.46;64.06;99585.40;129945;1271;108651;-79
2022/05/30 10:14:59;;;;;;;2.60;2.30;;;;;;;17.39;63.99;99587.25;130019;1271;108702;-79
2022/05/30 10:18:29;;;;;;;2.90;2.50;;;;;;;17.32;63.95;99591.63;130117;1271;108987;-82
2022/05/30 10:29:36;;;;;;;2.30;2.00;;;;;;;17.45;64.50;99590.38;129841;1271;108123;-81
2022/05/30 10:33:22;;;;;;;2.80;2.00;;;;;;;17.45;64.18;99595.86;129448;1272;108793;-79
2022/05/30 10:36:36;;;;;;;2.30;2.10;;;;;;;17.39;64.37;99601.31;129963;1271;107630;-79
2022/05/30 10:40:02;;;;;;;2.50;2.10;;;;;;;17.35;64.09;99607.31;129976;1271;108724;-79
2022/05/30 10:43:12;;;;;;;3.50;2.40;;;;;;;17.13;63.86;99609.38;129970;1271;108865;-80
2022/05/30 10:46:23;;;;;;;3.00;2.60;;;;;;;16.89;64.09;99617.66;130026;1272;108648;-80
2022/05/30 10:49:33;;;;;;;3.80;2.90;;;;;;;16.59;63.90;99621.20;130061;1271;109000;-79
2022/05/30 10:52:44;;;;;;;4.10;3.10;;;;;;;16.26;64.14;99626.29;130137;1271;108976;-79
2022/05/30 10:55:55;;;;;;;4.10;3.20;;;;;;;16.02;64.39;99634.00;130236;1271;108692;-80
2022/05/30 10:59:12;;;;;;;3.80;3.00;;;;;;;15.76;64.57;99640.98;130263;1271;108704;-80
2022/05/30 11:02:25;;;;;;;4.40;3.20;;;;;;;15.51;64.87;99645.84;130359;1271;108795;-80
2022/05/30 11:05:37;;;;;;;5.00;3.20;;;;;;;15.29;64.77;99654.21;130157;1271;108645;-79
2022/05/30 11:08:55;;;;;;;5.10;3.40;;;;;;;15.01;65.13;99658.76;130147;1271;108764;-80
2022/05/30 11:12:06;;;;;;;3.80;2.90;;;;;;;14.77;65.24;99663.42;130218;1271;108729;-79
2022/05/30 11:15:17;;;;;;;;;;;;;;;14.68;65.64;99664.92;130315;1271;108716;-78
2022/05/30 11:18:47;;;;;;;5.20;3.20;;;;;;;14.69;65.79;99666.42;130210;1271;107391;-79
2022/05/30 11:22:19;;;;;;;3.00;2.70;;;;;;;14.59;66.16;99671.41;130180;1271;108716;-79
2022/05/30 11:25:36;;;;;;;3.90;3.20;;;;;;;14.32;66.56;99685.35;130215;1271;108640;-79
2022/05/30 11:29:02;;;;;;;4.00;2.90;;;;;;;13.93;66.89;99692.04;130204;1271;108829;-79
2022/05/30 11:32:22;;;;;;;3.70;2.80;;;;;;;13.55;67.07;99694.55;130260;1271;107474;-79
2022/05/30 11:35:34;;;;;;;4.20;2.50;;;;;;;13.45;67.05;99696.91;130207;1271;108869;-79
2022/05/30 11:39:03;;;;;;;3.40;2.60;;;;;;;13.48;67.06;99699.39;130203;1271;107028;-79
2022/05/30 11:42:25;;;;;;;5.20;2.80;;;;;;;13.55;67.16;99694.25;129963;1271;108834;-79
2022/05/30 11:45:50;;;;;;;3.40;2.70;;;;;;;13.52;67.10;99691.94;130145;1271;108838;-79
2022/05/30 11:49:03;;;;;;;2.90;2.50;;;;;;;13.49;67.56;99695.05;130205;1271;108780;-79
2022/05/30 11:52:25;;;;;;;3.20;2.80;;;;;;;13.26;67.96;99700.31;130203;1270;108660;-79
2022/05/30 11:55:41;;;;;;;3.00;2.70;;;;;;;13.02;67.72;99699.27;130109;1271;108949;-79
2022/05/30 11:59:13;;;;;;;2.70;2.30;;;;;;;13.00;67.68;99703.09;130297;1270;108672;-81
2022/05/30 12:02:24;;;;;;;2.90;2.20;;;;;;;13.03;67.92;99703.50;130145;1270;108993;-79
2022/05/30 12:06:03;;;;;;;4.60;2.50;;;;;;;13.00;67.84;99705.39;130214;1270;108115;-79
2022/05/30 12:09:38;;;;;;;3.20;2.70;;;;;;;13.03;67.89;99708.52;129932;1270;108877;-78
2022/05/30 12:12:55;;;;;;;4.10;3.00;;;;;;;12.86;68.22;99716.33;130189;1271;108649;-78
2022/05/30 12:16:15;;;;;;;4.50;3.30;;;;;;;12.76;68.68;99723.38;130187;1270;109065;-78
2022/05/30 12:27:02;;;;;;;7.70;5.00;;;;;;;12.19;69.55;99736.20;129478;1276;107760;-78
2022/05/30 12:30:35;;;;;;;9.30;5.80;;;;;;;12.09;69.88;99734.88;130183;1271;108736;-78
2022/05/30 12:33:50;;;;;;;8.40;5.20;;;;;;;12.23;69.58;99739.18;130167;1271;109113;-78
2022/05/30 12:36:56;;;;;;;3.60;2.90;;;;;;;12.32;69.37;99744.18;130187;1271;108074;-78
2022/05/30 12:40:03;;;;;;;5.50;4.70;;;;;;;12.35;69.49;99744.06;130168;1271;108868;-78
2022/05/30 12:43:32;;;;;;;3.80;2.80;;;;;;;12.53;69.32;99748.25;130118;1271;108676;-78
2022/05/30 12:46:55;;;;;;;4.60;3.40;;;;;;;12.66;69.25;99742.40;130269;1271;109020;-78
2022/05/30 12:50:43;;;;;;;16.00;13.60;;;;;;;12.73;69.19;99744.64;130188;1271;108760;-79
2022/05/30 12:54:21;;;;;;;3.80;3.20;;;;;;;12.79;69.07;99746.41;129601;1276;108682;-78
2022/05/30 12:57:39;;;;;;;5.10;3.60;;;;;;;12.64;69.01;99750.48;129657;1271;107696;-80
2022/05/30 13:01:19;;;;;;;35.30;27.30;;;;;;;12.55;69.61;99748.46;127943;1271;3051191;-78
2022/05/30 13:04:27;;;;;;;35.90;31.20;;;;;;;12.50;69.76;99759.61;130159;1271;108463;-80
2022/05/30 13:07:32;;;;;;;21.90;19.70;;;;;;;12.57;69.59;99754.48;130160;1271;108701;-81
2022/05/30 13:10:42;;;;;;;18.00;16.00;;;;;;;12.67;69.66;99756.80;130174;1271;108944;-80
2022/05/30 13:13:53;;;;;;;4.40;3.20;;;;;;;12.63;69.71;99759.42;130051;1271;108773;-80
2022/05/30 13:17:06;;;;;;;2.70;2.20;;;;;;;12.50;69.87;99758.71;130163;1271;109155;-80
2022/05/30 13:20:16;;;;;;;3.20;2.40;;;;;;;12.37;69.78;99755.98;130211;1271;108699;-78
2022/05/30 13:23:32;;;;;;;2.00;1.70;;;;;;;12.37;69.99;99752.01;130364;1271;109009;-77
2022/05/30 13:26:37;;;;;;;12.40;11.20;;;;;;;12.47;69.47;99751.77;130249;1271;109096;-77
2022/05/30 13:29:43;;;;;;;22.00;19.00;;;;;;;12.51;69.54;99754.48;130222;1271;108643;-77
2022/05/30 13:32:49;;;;;;;10.90;8.60;;;;;;;12.59;70.03;99753.89;130202;1271;108682;-78
2022/05/30 13:35:59;;;;;;;10.40;9.30;;;;;;;12.66;70.46;99754.09;130194;1271;108661;-78
2022/05/30 13:39:06;;;;;;;7.20;3.90;;;;;;;12.73;70.52;99753.18;130314;1270;108756;-77
2022/05/30 13:42:12;;;;;;;34.90;26.10;;;;;;;12.89;70.54;99751.55;130248;1271;109240;-78
2022/05/30 13:45:18;;;;;;;8.10;6.00;;;;;;;13.14;70.18;99754.23;130195;1270;108662;-79
2022/05/30 13:48:24;;;;;;;17.60;11.20;;;;;;;13.41;70.22;99750.25;130158;1271;108647;-78
2022/05/30 13:51:33;;;;;;;12.00;7.50;;;;;;;13.81;70.29;99739.87;130166;1271;108938;-77
2022/05/30 13:54:42;;;;;;;11.80;5.50;;;;;;;14.21;69.89;99743.36;130243;1271;108872;-78
2022/05/30 13:57:48;;;;;;;4.40;3.10;;;;;;;14.54;69.68;99743.64;130254;1270;108825;-78
2022/05/30 14:00:55;;;;;;;159.00;88.20;;;;;;;14.82;69.39;99739.78;130356;1271;108774;-76
2022/05/30 14:04:06;;;;;;;113.20;76.20;;;;;;;15.14;69.62;99742.02;132176;1270;107459;-78
2022/05/30 14:07:23;;;;;;;35.20;25.40;;;;;;;15.42;68.87;99740.89;130409;1271;108726;-79
2022/05/30 14:10:30;;;;;;;11.30;8.70;;;;;;;15.45;68.76;99743.44;130257;1271;108775;-78
2022/05/30 14:13:39;;;;;;;13.50;10.80;;;;;;;15.33;67.25;99748.98;130175;1271;108833;-79
2022/05/30 14:16:55;;;;;;;9.10;8.10;;;;;;;15.06;67.94;99753.70;130415;1270;108637;-78
2022/05/30 14:20:12;;;;;;;12.90;10.20;;;;;;;14.99;68.79;99754.27;130277;1271;108951;-82
2022/05/30 14:23:19;;;;;;;30.20;23.40;;;;;;;15.08;68.82;99763.85;130237;1271;108783;-81
2022/05/30 14:26:30;;;;;;;32.10;28.80;;;;;;;15.28;68.92;99763.04;130309;1271;108924;-78
2022/05/30 14:29:46;;;;;;;15.50;14.00;;;;;;;15.47;68.53;99755.39;130428;1271;108437;-77
2022/05/30 14:33:06;;;;;;;82.10;62.50;;;;;;;15.72;68.52;99760.34;130339;1270;108766;-78
2022/05/30 14:36:37;;;;;;;54.40;39.40;;;;;;;16.00;68.26;99763.61;130210;1270;108931;-81
2022/05/30 14:39:49;;;;;;;39.90;33.30;;;;;;;16.22;67.76;99768.61;130288;1270;108734;-84
2022/05/30 14:42:57;;;;;;;57.10;49.70;;;;;;;16.42;67.68;99765.13;130266;1270;108673;-83
2022/05/30 14:46:17;;;;;;;33.90;29.30;;;;;;;16.62;67.65;99769.85;130323;1270;108927;-80
2022/05/30 14:49:26;;;;;;;8.70;7.70;;;;;;;16.78;67.39;99770.55;130211;1270;108271;-80
2022/05/30 14:52:36;;;;;;;7.10;6.10;;;;;;;16.86;67.22;99766.96;130175;1270;108700;-78
2022/05/30 14:55:46;;;;;;;4.90;4.20;;;;;;;16.82;67.27;99762.67;130252;1270;108747;-83
2022/05/30 14:58:54;;;;;;;7.20;6.10;;;;;;;16.78;67.38;99763.60;130360;1270;108964;-83
2022/05/30 15:02:00;;;;;;;11.80;10.60;;;;;;;16.71;67.19;99760.65;130368;1271;108751;-80
2022/05/30 15:05:07;;;;;;;17.10;15.40;;;;;;;16.65;66.87;99763.09;130442;1270;108727;-78
2022/05/30 15:08:13;;;;;;;6.20;5.60;;;;;;;16.51;66.22;99762.16;130348;1270;107259;-82
2022/05/30 15:11:24;;;;;;;7.20;6.50;;;;;;;16.50;66.62;99762.44;130396;1270;108636;-79
2022/05/30 15:14:30;;;;;;;14.40;12.90;;;;;;;16.51;66.56;99757.88;130256;1270;108706;-78
2022/05/30 15:17:36;;;;;;;17.60;14.80;;;;;;;16.47;66.13;99758.67;130228;1270;108644;-79
2022/05/30 15:20:44;;;;;;;11.60;10.40;;;;;;;16.39;65.87;99765.70;130198;1270;108957;-77